createdAt,value
2023-05-16T00:01:35.622Z,5.63
2023-05-16T00:04:04.357Z,5.20
2023-05-16T00:06:32.193Z,5.07
2023-05-16T00:08:59.591Z,5.57
2023-05-16T00:11:27.018Z,5.87
2023-05-16T00:13:54.462Z,5.47
2023-05-16T00:16:21.942Z,5.20
2023-05-16T00:18:49.946Z,6.13
2023-05-16T00:21:21.010Z,5.63
2023-05-16T00:23:49.963Z,6.07
2023-05-16T00:26:16.854Z,5.90
2023-05-16T00:28:44.290Z,5.70
2023-05-16T00:31:11.237Z,5.80
2023-05-16T00:33:38.222Z,7.00
2023-05-16T00:36:05.608Z,5.40
2023-05-16T00:38:32.571Z,5.97
2023-05-16T00:41:01.249Z,4.83
2023-05-16T00:43:28.176Z,5.60
2023-05-16T00:45:55.235Z,6.27
2023-05-16T00:48:22.194Z,5.37
2023-05-16T00:50:49.549Z,6.17
2023-05-16T00:53:16.894Z,5.70
2023-05-16T00:55:44.023Z,6.33
2023-05-16T00:58:12.030Z,5.67
2023-05-16T01:00:38.993Z,7.70
2023-05-16T01:03:06.538Z,4.90
2023-05-16T01:05:34.121Z,5.20
2023-05-16T01:08:01.114Z,5.37
2023-05-16T01:10:36.906Z,5.63
2023-05-16T01:13:15.506Z,5.90
2023-05-16T01:15:55.739Z,5.03
2023-05-16T01:18:30.123Z,5.27
2023-05-16T01:21:04.205Z,5.13
2023-05-16T01:23:54.156Z,5.13
2023-05-16T01:26:26.861Z,5.10
2023-05-16T01:28:54.765Z,5.87
2023-05-16T01:31:22.690Z,6.07
2023-05-16T01:33:50.651Z,5.20
2023-05-16T01:36:17.608Z,5.60
2023-05-16T01:39:25.643Z,4.97
2023-05-16T01:42:01.320Z,5.40
2023-05-16T01:44:36.283Z,5.40
2023-05-16T01:47:08.246Z,5.80
2023-05-16T01:50:05.556Z,5.00
2023-05-16T01:52:45.351Z,5.10
2023-05-16T01:55:19.331Z,4.87
2023-05-16T01:57:47.562Z,4.83
2023-05-16T02:00:15.039Z,5.57
2023-05-16T02:02:41.940Z,5.70
2023-05-16T02:05:08.979Z,7.07
2023-05-16T02:07:35.966Z,3.77
2023-05-16T02:10:02.890Z,4.63
2023-05-16T02:12:29.864Z,4.13
2023-05-16T02:14:56.722Z,4.60
2023-05-16T02:17:23.573Z,4.43
2023-05-16T02:19:50.604Z,5.77
2023-05-16T02:22:17.462Z,4.87
2023-05-16T02:24:44.965Z,4.80
2023-05-16T02:27:11.939Z,4.77
2023-05-16T02:29:38.790Z,5.20
2023-05-16T02:32:06.162Z,4.33
2023-05-16T02:34:33.061Z,4.63
2023-05-16T02:36:59.963Z,4.60
2023-05-16T02:39:26.932Z,5.40
2023-05-16T02:41:53.873Z,5.23
2023-05-16T02:44:20.778Z,5.00
2023-05-16T02:46:47.727Z,5.70
2023-05-16T02:49:14.714Z,4.10
2023-05-16T02:51:41.758Z,5.10
2023-05-16T02:54:09.999Z,5.03
2023-05-16T02:56:37.476Z,4.90
2023-05-16T02:59:05.108Z,4.70
2023-05-16T03:01:32.020Z,4.83
2023-05-16T03:03:59.104Z,5.00
2023-05-16T03:06:26.408Z,4.70
2023-05-16T03:08:53.281Z,4.50
2023-05-16T03:11:24.981Z,4.63
2023-05-16T03:13:51.913Z,5.10
2023-05-16T03:16:18.820Z,4.77
2023-05-16T03:18:45.916Z,4.77
2023-05-16T03:21:12.853Z,5.57
2023-05-16T03:23:39.684Z,4.70
2023-05-16T03:26:06.695Z,4.70
2023-05-16T03:28:33.836Z,4.97
2023-05-16T03:31:00.731Z,5.57
2023-05-16T03:33:27.731Z,5.97
2023-05-16T03:35:54.682Z,5.40
2023-05-16T03:38:21.659Z,5.47
2023-05-16T03:40:48.607Z,4.70
2023-05-16T03:43:15.540Z,5.17
2023-05-16T03:45:43.472Z,4.90
2023-05-16T03:48:11.333Z,5.57
2023-05-16T03:50:40.786Z,5.57
2023-05-16T03:53:09.091Z,4.80
2023-05-16T03:55:36.323Z,5.10
2023-05-16T03:58:03.244Z,5.63
2023-05-16T04:00:30.229Z,5.00
2023-05-16T04:02:57.256Z,6.20
2023-05-16T04:05:24.279Z,5.40
2023-05-16T04:07:51.262Z,4.83
2023-05-16T04:10:18.574Z,5.30
2023-05-16T04:12:45.656Z,5.17
2023-05-16T04:15:12.566Z,5.37
2023-05-16T04:17:40.226Z,5.00
2023-05-16T04:20:07.707Z,5.10
2023-05-16T04:22:35.679Z,5.23
2023-05-16T04:25:02.532Z,5.63
2023-05-16T04:27:30.730Z,5.33
2023-05-16T04:29:57.710Z,5.40
2023-05-16T04:32:24.975Z,5.27
2023-05-16T04:34:54.272Z,5.57
2023-05-16T04:37:21.163Z,5.37
2023-05-16T04:39:48.055Z,5.63
2023-05-16T04:42:14.957Z,5.47
2023-05-16T04:44:42.357Z,6.53
2023-05-16T04:47:09.512Z,5.87
2023-05-16T04:49:36.430Z,5.27
2023-05-16T04:52:03.363Z,4.87
2023-05-16T04:54:30.397Z,6.47
2023-05-16T04:56:57.529Z,6.03
2023-05-16T04:59:24.489Z,6.10
2023-05-16T05:01:51.572Z,5.30
2023-05-16T05:04:18.534Z,5.63
2023-05-16T05:06:45.466Z,5.53
2023-05-16T05:09:12.642Z,4.80
2023-05-16T05:11:39.680Z,6.27
2023-05-16T05:14:06.524Z,7.03
2023-05-16T05:16:33.458Z,6.30
2023-05-16T05:19:00.468Z,6.23
2023-05-16T05:21:27.533Z,6.07
2023-05-16T05:23:54.412Z,5.43
2023-05-16T05:26:22.285Z,6.40
2023-05-16T05:29:01.046Z,6.53
2023-05-16T05:31:31.301Z,6.00
2023-05-16T05:33:58.186Z,6.43
2023-05-16T05:36:25.014Z,6.77
2023-05-16T05:38:52.021Z,6.90
2023-05-16T05:41:18.904Z,7.23
2023-05-16T05:43:45.915Z,6.43
2023-05-16T05:46:12.924Z,6.40
2023-05-16T05:48:39.924Z,6.13
2023-05-16T05:51:06.973Z,7.00
2023-05-16T05:53:34.637Z,8.03
2023-05-16T05:56:01.628Z,6.87
2023-05-16T05:58:28.551Z,8.13
2023-05-16T06:00:55.448Z,6.60
2023-05-16T06:03:22.412Z,6.40
2023-05-16T06:05:49.482Z,6.90
2023-05-16T06:08:16.465Z,6.77
2023-05-16T06:10:43.385Z,6.80
2023-05-16T06:13:10.601Z,8.37
2023-05-16T06:15:37.537Z,7.07
2023-05-16T06:18:05.023Z,7.73
2023-05-16T06:20:32.022Z,7.13
2023-05-16T06:22:59.418Z,7.10
2023-05-16T06:25:26.541Z,6.47
2023-05-16T06:27:53.613Z,6.67
2023-05-16T06:30:20.557Z,6.03
2023-05-16T06:32:47.476Z,6.70
2023-05-16T06:35:14.397Z,7.47
2023-05-16T06:37:43.143Z,6.23
2023-05-16T06:40:11.876Z,6.30
2023-05-16T06:42:41.206Z,6.30
2023-05-16T06:45:09.134Z,5.83
2023-05-16T06:47:36.265Z,6.10
2023-05-16T06:50:03.454Z,6.50
2023-05-16T06:52:31.089Z,6.47
2023-05-16T06:54:58.064Z,6.37
2023-05-16T06:57:25.056Z,6.27
2023-05-16T06:59:52.172Z,6.33
2023-05-16T07:02:19.126Z,6.60
2023-05-16T07:04:46.139Z,6.90
2023-05-16T07:07:13.707Z,6.87
2023-05-16T07:09:40.784Z,6.70
2023-05-16T07:12:07.924Z,6.50
2023-05-16T07:14:35.179Z,6.10
2023-05-16T07:17:02.348Z,7.70
2023-05-16T07:19:29.510Z,7.67
2023-05-16T07:21:56.484Z,8.27
2023-05-16T07:24:23.554Z,7.50
2023-05-16T07:26:50.550Z,7.83
2023-05-16T07:29:17.928Z,8.27
2023-05-16T07:31:45.070Z,6.60
2023-05-16T07:34:12.234Z,6.37
2023-05-16T07:36:39.449Z,6.97
2023-05-16T07:39:06.475Z,6.57
2023-05-16T07:41:33.379Z,6.63
2023-05-16T07:44:00.365Z,7.40
2023-05-16T07:46:27.398Z,7.00
2023-05-16T07:48:54.348Z,7.03
2023-05-16T07:51:21.351Z,7.23
2023-05-16T07:53:48.233Z,6.87
2023-05-16T07:56:15.314Z,7.23
2023-05-16T07:58:42.601Z,8.73
2023-05-16T08:01:09.745Z,7.20
2023-05-16T08:03:43.147Z,7.53
2023-05-16T08:06:10.703Z,6.50
2023-05-16T08:08:38.198Z,6.63
2023-05-16T08:11:05.828Z,6.53
2023-05-16T08:13:32.857Z,5.80
2023-05-16T08:15:59.996Z,6.20
2023-05-16T08:18:26.988Z,6.20
2023-05-16T08:20:58.080Z,5.83
2023-05-16T08:23:36.439Z,4.93
2023-05-16T08:26:03.741Z,4.97
2023-05-16T08:28:31.154Z,4.60
2023-05-16T08:30:58.141Z,4.87
2023-05-16T08:33:25.389Z,4.87
2023-05-16T08:36:07.307Z,4.77
2023-05-16T08:38:34.328Z,5.50
2023-05-16T08:41:01.422Z,5.43
2023-05-16T08:43:28.685Z,5.20
2023-05-16T08:45:55.946Z,4.53
2023-05-16T08:48:24.605Z,5.17
2023-05-16T08:50:51.890Z,4.57
2023-05-16T08:53:23.037Z,4.30
2023-05-16T08:55:51.548Z,6.63
2023-05-16T08:58:19.378Z,5.40
2023-05-16T09:00:48.233Z,5.53
2023-05-16T09:03:15.345Z,4.73
2023-05-16T09:05:42.860Z,4.87
2023-05-16T09:08:09.850Z,7.17
2023-05-16T09:10:36.784Z,5.80
2023-05-16T09:13:04.564Z,5.10
2023-05-16T09:15:33.633Z,4.80
2023-05-16T09:18:05.107Z,5.40
2023-05-16T09:20:32.403Z,6.00
2023-05-16T09:23:00.663Z,4.43
2023-05-16T09:25:32.086Z,5.23
2023-05-16T09:28:02.133Z,5.10
2023-05-16T09:30:37.329Z,5.50
2023-05-16T09:33:07.209Z,5.20
2023-05-16T09:35:44.776Z,5.10
2023-05-16T09:38:17.333Z,4.77
2023-05-16T09:40:45.703Z,3.53
2023-05-16T09:43:16.804Z,3.47
2023-05-16T09:45:49.255Z,4.07
2023-05-16T09:48:19.923Z,4.50
2023-05-16T09:50:55.112Z,4.30
2023-05-16T09:53:29.370Z,4.77
2023-05-16T09:56:15.794Z,4.37
2023-05-16T09:58:44.779Z,3.30
2023-05-16T10:01:12.523Z,3.33
2023-05-16T10:03:41.834Z,3.97
2023-05-16T10:06:09.245Z,4.07
2023-05-16T10:08:37.586Z,4.00
2023-05-16T10:11:06.584Z,3.87
2023-05-16T10:13:36.135Z,3.63
2023-05-16T10:16:08.617Z,3.57
2023-05-16T10:18:38.317Z,3.47
2023-05-16T10:21:10.356Z,3.80
2023-05-16T10:23:41.437Z,3.03
2023-05-16T10:26:09.601Z,2.57
2023-05-16T10:28:36.952Z,2.57
2023-05-16T10:31:05.019Z,2.50
2023-05-16T10:33:32.137Z,2.50
2023-05-16T10:35:59.399Z,2.50
2023-05-16T10:38:28.303Z,2.60
2023-05-16T10:40:56.176Z,2.37
2023-05-16T10:43:26.815Z,2.77
2023-05-16T10:46:04.806Z,2.20
2023-05-16T10:48:39.771Z,2.47
2023-05-16T10:51:36.898Z,2.50
2023-05-16T10:54:12.746Z,2.40
2023-05-16T10:56:39.923Z,2.10
2023-05-16T10:59:28.708Z,2.23
2023-05-16T11:01:56.903Z,2.70
2023-05-16T11:04:24.184Z,2.33
2023-05-16T11:06:53.663Z,2.80
2023-05-16T11:09:27.502Z,2.70
2023-05-16T11:12:04.674Z,2.70
2023-05-16T11:14:34.408Z,2.50
2023-05-16T11:17:01.407Z,3.50
2023-05-16T11:19:39.945Z,3.27
2023-05-16T11:22:08.934Z,3.33
2023-05-16T11:24:39.777Z,3.50
2023-05-16T11:27:07.172Z,3.27
2023-05-16T11:29:35.917Z,2.77
2023-05-16T11:32:05.495Z,3.40
2023-05-16T11:34:35.907Z,3.27
2023-05-16T11:37:03.184Z,3.27
2023-05-16T11:39:32.321Z,3.40
2023-05-16T11:41:59.404Z,3.67
2023-05-16T11:44:26.539Z,3.63
2023-05-16T11:46:53.635Z,3.80
2023-05-16T11:49:20.991Z,4.40
2023-05-16T11:51:48.013Z,3.73
2023-05-16T11:54:16.521Z,3.87
2023-05-16T11:56:43.579Z,4.10
2023-05-16T11:59:11.514Z,3.67
2023-05-16T12:01:40.052Z,4.10
2023-05-16T12:04:12.465Z,4.03
2023-05-16T12:06:40.198Z,4.50
2023-05-16T12:09:11.602Z,3.60
2023-05-16T12:11:39.302Z,3.70
2023-05-16T12:14:07.857Z,4.23
2023-05-16T12:16:37.317Z,3.60
2023-05-16T12:19:07.407Z,3.80
2023-05-16T12:21:35.166Z,3.93
2023-05-16T12:24:02.745Z,3.83
2023-05-16T12:26:32.237Z,3.63
2023-05-16T12:29:03.134Z,4.53
2023-05-16T12:31:32.632Z,3.80
2023-05-16T12:34:00.183Z,4.63
2023-05-16T12:36:31.722Z,3.50
2023-05-16T12:39:04.159Z,4.13
2023-05-16T12:41:32.081Z,4.50
2023-05-16T12:44:17.327Z,4.37
2023-05-16T12:46:55.087Z,3.83
2023-05-16T12:49:25.580Z,4.30
2023-05-16T12:51:58.608Z,5.07
2023-05-16T12:54:25.619Z,5.17
2023-05-16T12:56:52.716Z,4.17
2023-05-16T12:59:20.422Z,4.90
2023-05-16T13:01:47.707Z,4.87
2023-05-16T13:04:19.429Z,5.00
2023-05-16T13:06:59.377Z,5.47
2023-05-16T13:09:30.052Z,5.30
2023-05-16T13:11:58.290Z,6.17
2023-05-16T13:14:25.298Z,5.57
2023-05-16T13:17:01.131Z,5.20
2023-05-16T13:19:28.100Z,4.27
2023-05-16T13:21:55.065Z,6.50
2023-05-16T13:24:22.093Z,4.50
2023-05-16T13:26:49.012Z,4.53
2023-05-16T13:29:16.187Z,4.67
2023-05-16T13:31:43.341Z,5.37
2023-05-16T13:34:10.441Z,5.17
2023-05-16T13:36:52.383Z,4.30
2023-05-16T13:39:24.821Z,4.27
2023-05-16T13:41:52.363Z,5.00
2023-05-16T13:44:19.510Z,4.03
2023-05-16T13:46:46.879Z,4.03
2023-05-16T13:49:14.115Z,5.50
2023-05-16T13:51:41.429Z,5.33
2023-05-16T13:54:08.810Z,10.43
2023-05-16T13:56:35.863Z,4.60
2023-05-16T13:59:06.932Z,5.27
2023-05-16T14:01:34.683Z,4.83
2023-05-16T14:04:01.873Z,5.97
2023-05-16T14:06:32.491Z,6.47
2023-05-16T14:08:59.648Z,5.37
2023-05-16T14:11:29.083Z,6.50
2023-05-16T14:13:57.693Z,5.97
2023-05-16T14:16:24.966Z,5.87
2023-05-16T14:18:52.145Z,5.67
2023-05-16T14:21:19.830Z,7.70
2023-05-16T14:23:46.863Z,6.50
2023-05-16T14:26:13.904Z,6.63
2023-05-16T14:28:41.482Z,7.30
2023-05-16T14:31:08.673Z,7.00
2023-05-16T14:33:35.725Z,10.03
2023-05-16T14:36:02.707Z,7.23
2023-05-16T14:38:29.767Z,6.23
2023-05-16T14:40:56.707Z,7.27
2023-05-16T14:43:23.603Z,6.80
2023-05-16T14:45:50.541Z,7.43
2023-05-16T14:48:17.613Z,13.20
2023-05-16T14:50:44.660Z,6.60
2023-05-16T14:53:11.759Z,6.70
2023-05-16T14:55:38.840Z,8.50
2023-05-16T14:58:06.017Z,6.73
2023-05-16T15:00:33.116Z,6.37
2023-05-16T15:03:00.197Z,6.87
2023-05-16T15:05:29.344Z,5.90
2023-05-16T15:07:56.630Z,6.17
2023-05-16T15:10:24.301Z,6.00
2023-05-16T15:12:51.334Z,6.00
2023-05-16T15:15:18.424Z,5.37
2023-05-16T15:17:45.426Z,7.07
2023-05-16T15:20:12.581Z,6.33
2023-05-16T15:22:41.230Z,6.10
2023-05-16T15:25:09.263Z,6.00
2023-05-16T15:27:36.381Z,6.70
2023-05-16T15:30:03.783Z,6.40
2023-05-16T15:32:30.791Z,6.30
2023-05-16T15:34:57.879Z,5.73
2023-05-16T15:37:25.171Z,5.60
2023-05-16T15:39:52.260Z,4.87
2023-05-16T15:42:20.399Z,4.87
2023-05-16T15:44:47.377Z,5.30
2023-05-16T15:47:14.505Z,5.33
2023-05-16T15:49:41.715Z,10.10
2023-05-16T15:52:08.968Z,5.40
2023-05-16T15:54:36.865Z,5.60
2023-05-16T15:57:03.968Z,5.00
2023-05-16T15:59:31.168Z,4.80
2023-05-16T16:01:58.124Z,4.33
2023-05-16T16:04:25.089Z,6.30
2023-05-16T16:06:52.141Z,5.00
2023-05-16T16:09:20.001Z,6.40
2023-05-16T16:11:47.106Z,4.63
2023-05-16T16:14:14.178Z,5.17
2023-05-16T16:16:41.305Z,7.17
2023-05-16T16:19:08.635Z,7.50
2023-05-16T16:21:36.054Z,8.10
2023-05-16T16:24:03.209Z,8.97
2023-05-16T16:26:31.811Z,9.57
2023-05-16T16:28:59.799Z,9.00
2023-05-16T16:31:26.840Z,8.57
2023-05-16T16:33:54.850Z,8.20
2023-05-16T16:36:22.271Z,8.17
2023-05-16T16:38:49.253Z,7.63
2023-05-16T16:41:16.667Z,7.80
2023-05-16T16:43:43.707Z,6.40
2023-05-16T16:46:10.748Z,7.60
2023-05-16T16:48:37.874Z,6.50
2023-05-16T16:51:07.892Z,6.43
2023-05-16T16:53:35.364Z,6.30
2023-05-16T16:56:02.335Z,8.47
2023-05-16T16:58:29.357Z,6.73
2023-05-16T17:00:56.468Z,7.80
2023-05-16T17:03:23.456Z,15.20
2023-05-16T17:05:50.850Z,7.43
2023-05-16T17:08:17.748Z,6.23
2023-05-16T17:10:44.681Z,6.40
2023-05-16T17:13:14.195Z,6.57
2023-05-16T17:15:41.484Z,6.67
2023-05-16T17:18:08.543Z,6.87
2023-05-16T17:20:36.277Z,6.43
2023-05-16T17:23:03.983Z,7.57
2023-05-16T17:25:31.131Z,6.03
2023-05-16T17:27:58.458Z,6.43
2023-05-16T17:30:26.320Z,6.33
2023-05-16T17:32:54.154Z,6.23
2023-05-16T17:35:21.425Z,5.37
2023-05-16T17:37:49.932Z,4.13
2023-05-16T17:40:17.872Z,3.13
2023-05-16T17:42:45.778Z,3.47
2023-05-16T17:45:16.440Z,3.00
2023-05-16T17:47:43.542Z,2.60
2023-05-16T17:50:11.060Z,2.47
2023-05-16T17:52:39.896Z,2.63
2023-05-16T17:55:08.899Z,2.80
2023-05-16T17:57:36.055Z,3.40
2023-05-16T18:00:05.593Z,2.50
2023-05-16T18:02:33.071Z,2.70
2023-05-16T18:05:00.249Z,2.20
2023-05-16T18:07:27.276Z,2.70
2023-05-16T18:09:54.517Z,2.70
2023-05-16T18:12:21.948Z,2.30
2023-05-16T18:14:48.914Z,3.07
2023-05-16T18:17:15.883Z,2.00
2023-05-16T18:19:43.013Z,2.17
2023-05-16T18:22:13.331Z,2.60
2023-05-16T18:24:40.563Z,2.40
2023-05-16T18:27:07.557Z,2.60
2023-05-16T18:29:34.565Z,3.37
2023-05-16T18:32:01.828Z,2.53
2023-05-16T18:34:28.969Z,2.47
2023-05-16T18:36:55.878Z,2.77
2023-05-16T18:39:22.864Z,2.90
2023-05-16T18:41:50.077Z,2.23
2023-05-16T18:44:17.496Z,3.27
2023-05-16T18:46:47.650Z,3.10
2023-05-16T18:49:14.813Z,2.47
2023-05-16T18:51:41.840Z,2.83
2023-05-16T18:54:09.166Z,2.43
2023-05-16T18:56:36.572Z,2.60
2023-05-16T18:59:03.619Z,2.37
2023-05-16T19:01:30.756Z,2.77
2023-05-16T19:03:57.946Z,2.53
2023-05-16T19:06:25.041Z,2.40
2023-05-16T19:08:52.089Z,2.33
2023-05-16T19:11:19.262Z,2.50
2023-05-16T19:13:47.190Z,2.87
2023-05-16T19:16:14.600Z,2.77
2023-05-16T19:18:41.861Z,2.90
2023-05-16T19:21:10.988Z,3.87
2023-05-16T19:23:37.936Z,3.47
2023-05-16T19:26:04.938Z,3.63
2023-05-16T19:28:32.548Z,3.10
2023-05-16T19:30:59.484Z,3.50
2023-05-16T19:33:26.825Z,3.20
2023-05-16T19:35:53.805Z,3.50
2023-05-16T19:38:22.393Z,4.30
2023-05-16T19:40:49.659Z,8.40
2023-05-16T19:43:16.707Z,4.77
2023-05-16T19:45:43.713Z,4.07
2023-05-16T19:48:11.101Z,4.07
2023-05-16T19:50:38.081Z,4.10
2023-05-16T19:53:05.259Z,5.60
2023-05-16T19:55:33.735Z,4.50
2023-05-16T19:58:01.648Z,4.10
2023-05-16T20:00:28.637Z,5.10
2023-05-16T20:02:55.836Z,6.67
2023-05-16T20:05:23.466Z,5.10
2023-05-16T20:07:50.785Z,4.43
2023-05-16T20:10:19.206Z,4.70
2023-05-16T20:12:47.404Z,5.17
2023-05-16T20:15:14.412Z,4.87
2023-05-16T20:17:41.893Z,4.80
2023-05-16T20:20:09.790Z,4.70
2023-05-16T20:22:38.977Z,5.10
2023-05-16T20:25:07.605Z,5.13
2023-05-16T20:27:34.624Z,5.43
2023-05-16T20:30:02.884Z,4.97
2023-05-16T20:32:30.008Z,4.67
2023-05-16T20:34:57.047Z,5.10
2023-05-16T20:37:26.815Z,5.13
2023-05-16T20:39:54.535Z,4.87
2023-05-16T20:42:22.321Z,5.23
2023-05-16T20:44:49.352Z,5.20
2023-05-16T20:47:17.221Z,4.43
2023-05-16T20:49:44.366Z,4.07
2023-05-16T20:52:11.499Z,5.03
2023-05-16T20:54:38.580Z,4.30
2023-05-16T20:57:05.828Z,4.33
2023-05-16T20:59:33.996Z,4.30
2023-05-16T21:02:01.067Z,5.17
2023-05-16T21:04:28.115Z,5.03
2023-05-16T21:06:55.188Z,5.43
2023-05-16T21:09:22.202Z,4.87
2023-05-16T21:11:49.796Z,4.90
2023-05-16T21:14:16.798Z,4.67
2023-05-16T21:16:43.890Z,4.77
2023-05-16T21:19:13.075Z,4.93
2023-05-16T21:21:40.009Z,5.53
2023-05-16T21:24:07.266Z,4.67
2023-05-16T21:26:34.212Z,4.60
2023-05-16T21:29:01.327Z,5.60
2023-05-16T21:31:28.403Z,4.97
2023-05-16T21:33:55.493Z,4.90
2023-05-16T21:36:22.782Z,5.40
2023-05-16T21:38:49.724Z,5.50
2023-05-16T21:41:18.318Z,5.80
2023-05-16T21:43:45.469Z,5.43
2023-05-16T21:46:13.581Z,4.83
2023-05-16T21:48:40.725Z,5.00
2023-05-16T21:51:07.803Z,4.93
2023-05-16T21:53:34.793Z,5.20
2023-05-16T21:56:01.720Z,5.13
2023-05-16T21:58:28.699Z,5.37
2023-05-16T22:00:55.993Z,5.27
2023-05-16T22:03:23.129Z,5.30
2023-05-16T22:05:50.158Z,5.57
2023-05-16T22:08:17.130Z,5.40
2023-05-16T22:10:44.159Z,5.00
2023-05-16T22:13:11.204Z,5.30
2023-05-16T22:15:39.483Z,4.90
2023-05-16T22:18:06.791Z,5.23
2023-05-16T22:20:33.777Z,5.10
2023-05-16T22:23:00.848Z,5.17
2023-05-16T22:25:28.170Z,5.80
2023-05-16T22:27:55.395Z,4.77
2023-05-16T22:30:22.307Z,6.57
2023-05-16T22:32:49.446Z,5.10
2023-05-16T22:35:16.570Z,5.30
2023-05-16T22:37:43.538Z,5.53
2023-05-16T22:40:11.231Z,5.60
2023-05-16T22:42:38.232Z,5.77
2023-05-16T22:45:05.795Z,5.73
2023-05-16T22:47:32.866Z,5.80
2023-05-16T22:50:02.574Z,5.20
2023-05-16T22:52:29.608Z,6.23
2023-05-16T22:54:58.539Z,6.00
2023-05-16T22:57:25.710Z,5.67
2023-05-16T22:59:52.989Z,6.00
2023-05-16T23:02:20.057Z,5.77
2023-05-16T23:04:47.307Z,5.63
2023-05-16T23:07:14.236Z,6.10
2023-05-16T23:09:41.226Z,6.43
2023-05-16T23:12:08.826Z,5.90
2023-05-16T23:14:35.869Z,6.47
2023-05-16T23:17:02.844Z,6.40
2023-05-16T23:19:30.368Z,7.10
2023-05-16T23:21:57.627Z,5.90
2023-05-16T23:24:25.192Z,5.70
2023-05-16T23:26:52.190Z,6.03
2023-05-16T23:29:19.140Z,5.77
2023-05-16T23:31:46.570Z,5.27
2023-05-16T23:34:13.524Z,5.77
2023-05-16T23:36:40.543Z,5.77
2023-05-16T23:39:08.350Z,5.67
2023-05-16T23:41:35.499Z,5.67
2023-05-16T23:44:02.568Z,6.40
2023-05-16T23:46:29.772Z,5.63
2023-05-16T23:48:57.321Z,5.67
2023-05-16T23:51:24.464Z,6.17
2023-05-16T23:53:54.349Z,6.20
2023-05-16T23:56:21.330Z,6.17
2023-05-16T23:58:49.336Z,5.90
